createdAt,value
2023-04-04T00:02:46.385Z,31.25
2023-04-04T00:07:50.781Z,31.65
2023-04-04T00:12:53.807Z,30.98
2023-04-04T00:17:57.314Z,31.85
2023-04-04T00:23:01.608Z,31.58
2023-04-04T00:28:04.636Z,30.50
2023-04-04T00:33:08.121Z,31.33
2023-04-04T00:38:12.821Z,31.10
2023-04-04T00:43:16.993Z,30.48
2023-04-04T00:48:21.308Z,30.97
2023-04-04T00:53:26.008Z,30.40
2023-04-04T00:58:29.016Z,30.50
2023-04-04T01:03:32.149Z,30.10
2023-04-04T01:08:38.857Z,30.30
2023-04-04T01:13:43.359Z,29.97
2023-04-04T01:18:50.951Z,30.10
2023-04-04T01:24:01.274Z,30.37
2023-04-04T01:29:31.022Z,30.27
2023-04-04T01:34:45.576Z,30.47
2023-04-04T01:39:54.413Z,30.53
2023-04-04T01:44:59.040Z,30.67
2023-04-04T01:50:10.428Z,30.73
2023-04-04T01:55:13.490Z,29.67
2023-04-04T02:00:18.630Z,30.85
2023-04-04T02:05:21.475Z,30.67
2023-04-04T02:10:24.342Z,31.13
2023-04-04T02:15:29.119Z,30.53
2023-04-04T02:20:32.616Z,30.60
2023-04-04T02:25:35.556Z,30.43
2023-04-04T02:30:39.895Z,30.33
2023-04-04T02:35:42.997Z,30.53
2023-04-04T02:40:46.842Z,31.10
2023-04-04T02:45:51.712Z,31.00
2023-04-04T02:50:58.680Z,30.43
2023-04-04T02:56:03.688Z,30.52
2023-04-04T03:01:08.576Z,31.00
2023-04-04T03:06:14.868Z,30.87
2023-04-04T03:11:21.089Z,30.33
2023-04-04T03:16:27.125Z,30.80
2023-04-04T03:21:30.243Z,30.70
2023-04-04T03:26:34.852Z,30.83
2023-04-04T03:31:41.740Z,30.70
2023-04-04T03:36:46.642Z,34.57
2023-04-04T03:41:49.498Z,31.20
2023-04-04T03:46:54.312Z,30.93
2023-04-04T03:51:58.985Z,30.70
2023-04-04T03:57:02.088Z,30.37
2023-04-04T04:02:06.873Z,30.93
2023-04-04T04:07:09.867Z,30.47
2023-04-04T04:12:12.731Z,30.27
2023-04-04T04:17:19.714Z,29.87
2023-04-04T04:22:24.190Z,30.10
2023-04-04T04:27:27.332Z,30.13
2023-04-04T04:32:32.536Z,30.63
2023-04-04T04:37:35.628Z,29.67
2023-04-04T04:42:45.945Z,30.47
2023-04-04T04:47:53.207Z,31.50
2023-04-04T04:52:57.389Z,30.10
2023-04-04T04:58:01.225Z,30.17
2023-04-04T05:03:07.626Z,30.13
2023-04-04T05:08:15.728Z,30.37
2023-04-04T05:13:29.195Z,29.97
2023-04-04T05:18:33.711Z,30.20
2023-04-04T05:23:36.793Z,31.20
2023-04-04T05:28:40.735Z,31.33
2023-04-04T05:33:45.590Z,30.67
2023-04-04T05:39:05.827Z,30.83
2023-04-04T05:44:12.553Z,30.67
2023-04-04T05:49:16.973Z,30.80
2023-04-04T05:54:29.729Z,31.87
2023-04-04T05:59:35.006Z,32.17
2023-04-04T06:04:41.915Z,31.27
2023-04-04T06:09:46.988Z,30.83
2023-04-04T06:14:49.937Z,30.27
2023-04-04T06:19:57.886Z,30.37
2023-04-04T06:25:00.859Z,32.37
2023-04-04T06:30:06.276Z,30.83
2023-04-04T06:35:11.173Z,30.57
2023-04-04T06:40:19.416Z,30.47
2023-04-04T06:45:23.598Z,31.17
2023-04-04T06:50:30.896Z,31.33
2023-04-04T06:55:34.585Z,31.40
2023-04-04T07:00:37.975Z,31.87
2023-04-04T07:05:42.605Z,30.97
2023-04-04T07:10:45.819Z,31.13
2023-04-04T07:15:50.121Z,30.63
2023-04-04T07:20:54.907Z,31.27
2023-04-04T07:25:57.852Z,31.23
2023-04-04T07:31:01.791Z,31.33
2023-04-04T07:36:06.466Z,31.40
2023-04-04T07:41:09.805Z,31.43
2023-04-04T07:46:12.759Z,31.80
2023-04-04T07:51:17.312Z,32.47
2023-04-04T07:56:21.650Z,31.57
2023-04-04T08:01:24.482Z,31.43
2023-04-04T08:06:28.676Z,31.70
2023-04-04T08:11:31.545Z,31.90
2023-04-04T08:16:34.652Z,31.10
2023-04-04T08:21:38.836Z,31.97
2023-04-04T08:26:43.579Z,31.33
2023-04-04T08:31:48.321Z,32.08
2023-04-04T08:36:52.954Z,32.03
2023-04-04T08:42:03.216Z,31.70
2023-04-04T08:47:09.114Z,31.30
2023-04-04T08:52:15.940Z,31.65
2023-04-04T08:57:27.365Z,31.90
2023-04-04T09:02:35.190Z,32.05
2023-04-04T09:07:40.026Z,31.95
2023-04-04T09:12:45.131Z,31.80
2023-04-04T09:17:49.019Z,32.03
2023-04-04T09:22:53.350Z,31.52
2023-04-04T09:27:57.923Z,31.90
2023-04-04T09:33:06.162Z,32.25
2023-04-04T09:38:10.524Z,32.20
2023-04-04T09:43:13.813Z,32.08
2023-04-04T09:48:27.202Z,32.00
2023-04-04T09:53:31.652Z,32.45
2023-04-04T09:58:36.193Z,32.67
2023-04-04T10:03:39.927Z,32.65
2023-04-04T10:08:45.760Z,32.58
2023-04-04T10:13:53.247Z,32.13
2023-04-04T10:18:57.148Z,32.20
2023-04-04T10:24:08.867Z,32.70
2023-04-04T10:29:11.833Z,32.45
2023-04-04T10:34:26.188Z,32.67
2023-04-04T10:39:34.262Z,32.75
2023-04-04T10:44:39.995Z,35.65
2023-04-04T10:49:45.714Z,33.25
2023-04-04T10:54:52.267Z,33.03
2023-04-04T10:59:59.132Z,33.17
2023-04-04T11:05:12.324Z,33.28
2023-04-04T11:10:21.942Z,32.95
2023-04-04T11:15:26.242Z,32.78
2023-04-04T11:20:34.586Z,33.72
2023-04-04T11:25:42.809Z,33.30
2023-04-04T11:30:48.838Z,33.38
2023-04-04T11:35:51.884Z,33.15
2023-04-04T11:40:56.714Z,33.13
2023-04-04T11:46:08.808Z,33.30
2023-04-04T11:51:12.766Z,33.30
2023-04-04T11:56:18.169Z,32.92
2023-04-04T12:01:21.690Z,32.65
2023-04-04T12:06:25.401Z,33.13
2023-04-04T12:11:32.108Z,32.70
2023-04-04T12:16:37.177Z,33.05
2023-04-04T12:21:40.553Z,34.28
2023-04-04T12:26:46.987Z,33.13
2023-04-04T12:31:51.203Z,32.80
2023-04-04T12:36:54.255Z,32.38
2023-04-04T12:41:59.930Z,33.30
2023-04-04T12:47:05.144Z,32.95
2023-04-04T12:52:17.052Z,33.00
2023-04-04T12:57:23.293Z,32.80
2023-04-04T13:02:29.460Z,33.38
2023-04-04T13:07:34.879Z,33.40
2023-04-04T13:12:59.572Z,33.50
2023-04-04T13:18:15.920Z,33.15
2023-04-04T13:23:19.256Z,33.08
2023-04-04T13:28:23.480Z,33.08
2023-04-04T13:33:26.357Z,33.35
2023-04-04T13:38:30.294Z,33.20
2023-04-04T13:43:34.553Z,33.78
2023-04-04T13:48:37.404Z,35.42
2023-04-04T13:53:41.445Z,33.58
2023-04-04T13:58:46.327Z,34.10
2023-04-04T14:03:49.307Z,33.80
2023-04-04T14:08:52.169Z,34.15
2023-04-04T14:13:56.352Z,34.35
2023-04-04T14:18:59.192Z,33.90
2023-04-04T14:24:02.033Z,34.22
2023-04-04T14:29:06.909Z,34.33
2023-04-04T14:34:10.354Z,33.65
2023-04-04T14:39:14.022Z,34.10
2023-04-04T14:44:18.437Z,34.47
2023-04-04T14:49:31.574Z,34.05
2023-04-04T14:54:34.508Z,34.47
2023-04-04T14:59:39.700Z,34.63
2023-04-04T15:04:42.860Z,34.30
2023-04-04T15:09:46.047Z,34.75
2023-04-04T15:14:50.346Z,34.33
2023-04-04T15:19:53.256Z,33.83
2023-04-04T15:24:56.479Z,33.40
2023-04-04T15:30:00.806Z,33.88
2023-04-04T15:35:04.524Z,34.63
2023-04-04T15:40:08.449Z,34.88
2023-04-04T15:45:14.066Z,34.53
2023-04-04T15:50:16.914Z,34.33
2023-04-04T15:55:21.654Z,34.38
2023-04-04T16:00:28.894Z,34.65
2023-04-04T16:05:34.846Z,36.05
2023-04-04T16:10:37.819Z,34.75
2023-04-04T16:15:42.435Z,33.78
2023-04-04T16:20:45.335Z,34.90
2023-04-04T16:25:48.194Z,33.97
2023-04-04T16:30:52.709Z,34.15
2023-04-04T16:35:56.467Z,34.95
2023-04-04T16:41:06.364Z,34.35
2023-04-04T16:46:10.740Z,34.85
2023-04-04T16:51:14.011Z,34.95
2023-04-04T16:56:17.053Z,34.00
2023-04-04T17:01:23.456Z,34.72
2023-04-04T17:06:27.399Z,34.47
2023-04-04T17:11:30.348Z,34.33
2023-04-04T17:16:34.659Z,33.47
2023-04-04T17:21:43.631Z,35.33
2023-04-04T17:26:48.094Z,34.63
2023-04-04T17:31:53.220Z,34.10
2023-04-04T17:36:56.806Z,34.42
2023-04-04T17:42:01.145Z,33.78
2023-04-04T17:47:05.900Z,34.70
2023-04-04T17:52:08.854Z,34.78
2023-04-04T17:57:11.857Z,35.38
2023-04-04T18:02:16.584Z,34.28
2023-04-04T18:07:19.988Z,34.35
2023-04-04T18:12:22.879Z,35.38
2023-04-04T18:17:28.280Z,34.95
2023-04-04T18:22:34.118Z,34.92
2023-04-04T18:27:37.481Z,34.78
2023-04-04T18:32:49.770Z,34.22
2023-04-04T18:37:52.758Z,35.03
2023-04-04T18:42:55.799Z,34.25
2023-04-04T18:48:00.007Z,33.83
2023-04-04T18:53:03.045Z,34.08
2023-04-04T18:58:05.923Z,34.38
2023-04-04T19:03:11.822Z,34.25
2023-04-04T19:08:17.235Z,34.08
2023-04-04T19:13:22.226Z,33.47
2023-04-04T19:18:26.436Z,33.35
2023-04-04T19:23:29.280Z,33.63
2023-04-04T19:28:32.185Z,33.80
2023-04-04T19:33:36.994Z,35.00
2023-04-04T19:38:42.292Z,34.75
2023-04-04T19:43:50.706Z,34.28
2023-04-04T19:48:55.737Z,35.13
2023-04-04T19:54:11.717Z,34.33
2023-04-04T19:59:48.146Z,34.35
2023-04-04T20:04:52.347Z,34.17
2023-04-04T20:09:56.143Z,34.00
2023-04-04T20:15:15.332Z,33.92
2023-04-04T20:20:51.167Z,33.33
2023-04-04T20:25:55.094Z,33.90
2023-04-04T20:31:01.788Z,33.55
2023-04-04T20:36:10.798Z,33.05
2023-04-04T20:41:18.127Z,34.30
2023-04-04T20:46:21.933Z,33.40
2023-04-04T20:51:30.891Z,33.35
2023-04-04T20:56:56.361Z,34.38
2023-04-04T21:02:11.353Z,33.50
2023-04-04T21:07:40.513Z,33.75
2023-04-04T21:12:43.371Z,33.28
2023-04-04T21:17:46.346Z,35.05
2023-04-04T21:22:51.886Z,33.17
2023-04-04T21:27:56.752Z,33.88
2023-04-04T21:32:59.640Z,34.03
2023-04-04T21:38:06.158Z,33.63
2023-04-04T21:43:09.005Z,34.08
2023-04-04T21:48:11.871Z,34.00
2023-04-04T21:53:17.344Z,33.22
2023-04-04T21:58:20.237Z,33.33
2023-04-04T22:03:23.140Z,33.83
2023-04-04T22:08:27.381Z,32.83
2023-04-04T22:13:33.057Z,33.80
2023-04-04T22:18:36.408Z,34.38
2023-04-04T22:23:40.847Z,33.47
2023-04-04T22:28:45.792Z,33.63
2023-04-04T22:33:48.937Z,33.45
2023-04-04T22:38:57.165Z,34.08
2023-04-04T22:44:00.620Z,33.67
2023-04-04T22:49:07.160Z,34.22
2023-04-04T22:54:12.946Z,33.58
2023-04-04T22:59:15.895Z,33.55
2023-04-04T23:04:18.853Z,33.00
2023-04-04T23:09:23.541Z,33.47
2023-04-04T23:14:30.585Z,34.15
2023-04-04T23:19:33.470Z,33.95
2023-04-04T23:24:37.743Z,34.25
2023-04-04T23:29:41.197Z,33.60
2023-04-04T23:34:44.031Z,33.47
2023-04-04T23:39:48.214Z,33.30
2023-04-04T23:44:51.286Z,33.63
2023-04-04T23:49:54.148Z,33.72
2023-04-04T23:54:58.341Z,34.13
